sensor_id;sensor_type;location;lat;lon;timestamp;temperature;humidity
37874;DHT22;23709;48.078;11.684;2022-12-07T05:33:24;1.90;99.90
37874;DHT22;23709;48.078;11.684;2022-12-07T05:35:56;1.90;99.90
37874;DHT22;23709;48.078;11.684;2022-12-07T05:38:29;2.00;99.90
37874;DHT22;23709;48.078;11.684;2022-12-07T05:41:03;2.00;99.90
37874;DHT22;23709;48.078;11.684;2022-12-07T05:43:35;2.00;99.90
37874;DHT22;23709;48.078;11.684;2022-12-07T05:46:07;2.20;99.90
37874;DHT22;23709;48.078;11.684;2022-12-07T05:48:40;2.20;99.90
37874;DHT22;23709;48.078;11.684;2022-12-07T05:51:12;2.20;99.90
37874;DHT22;23709;48.078;11.684;2022-12-07T05:53:45;2.30;99.90
37874;DHT22;23709;48.078;11.684;2022-12-07T05:56:18;2.30;99.90
37874;DHT22;23709;48.078;11.684;2022-12-07T05:58:50;2.30;99.90
37874;DHT22;23709;48.078;11.684;2022-12-07T06:02:03;2.30;99.90
37874;DHT22;23709;48.078;11.684;2022-12-07T06:04:42;2.40;99.90
37874;DHT22;23709;48.078;11.684;2022-12-07T06:07:15;2.40;99.90
37874;DHT22;23709;48.078;11.684;2022-12-07T06:09:48;2.40;99.90
37874;DHT22;23709;48.078;11.684;2022-12-07T06:12:20;2.40;99.90
37874;DHT22;23709;48.078;11.684;2022-12-07T06:15:07;2.40;99.90
37874;DHT22;23709;48.078;11.684;2022-12-07T06:17:39;2.40;99.90
37874;DHT22;23709;48.078;11.684;2022-12-07T06:20:11;2.40;99.90
37874;DHT22;23709;48.078;11.684;2022-12-07T06:22:43;2.40;99.90
37874;DHT22;23709;48.078;11.684;2022-12-07T06:25:16;2.40;99.90
37874;DHT22;23709;48.078;11.684;2022-12-07T06:27:48;2.40;99.90
37874;DHT22;23709;48.078;11.684;2022-12-07T06:30:20;2.40;99.90
37874;DHT22;23709;48.078;11.684;2022-12-07T06:32:52;2.40;99.90
37874;DHT22;23709;48.078;11.684;2022-12-07T06:35:24;2.40;99.90
37874;DHT22;23709;48.078;11.684;2022-12-07T06:37:56;2.40;99.90
37874;DHT22;23709;48.078;11.684;2022-12-07T06:40:28;2.40;99.90
37874;DHT22;23709;48.078;11.684;2022-12-07T06:43:01;2.40;99.90
37874;DHT22;23709;48.078;11.684;2022-12-07T06:45:33;2.40;99.90
37874;DHT22;23709;48.078;11.684;2022-12-07T06:48:05;2.50;99.90
37874;DHT22;23709;48.078;11.684;2022-12-07T06:50:37;2.50;99.90
37874;DHT22;23709;48.078;11.684;2022-12-07T06:53:09;2.50;99.90
37874;DHT22;23709;48.078;11.684;2022-12-07T06:55:41;2.40;99.90
37874;DHT22;23709;48.078;11.684;2022-12-07T06:58:14;2.40;99.90
37874;DHT22;23709;48.078;11.684;2022-12-07T07:00:48;2.50;99.90
37874;DHT22;23709;48.078;11.684;2022-12-07T07:03:20;2.70;99.90
37874;DHT22;23709;48.078;11.684;2022-12-07T07:05:52;2.60;99.90
37874;DHT22;23709;48.078;11.684;2022-12-07T07:08:24;2.50;99.90
37874;DHT22;23709;48.078;11.684;2022-12-07T07:10:56;2.50;99.90
37874;DHT22;23709;48.078;11.684;2022-12-07T07:13:28;2.50;99.90
37874;DHT22;23709;48.078;11.684;2022-12-07T07:16:01;2.40;99.90
37874;DHT22;23709;48.078;11.684;2022-12-07T07:18:33;2.50;99.90
37874;DHT22;23709;48.078;11.684;2022-12-07T07:21:05;2.50;99.90
37874;DHT22;23709;48.078;11.684;2022-12-07T07:23:37;2.50;99.90
37874;DHT22;23709;48.078;11.684;2022-12-07T07:26:09;2.40;99.90
37874;DHT22;23709;48.078;11.684;2022-12-07T07:28:41;2.40;99.90
37874;DHT22;23709;48.078;11.684;2022-12-07T07:31:13;2.50;99.90
37874;DHT22;23709;48.078;11.684;2022-12-07T07:33:47;2.50;99.90
37874;DHT22;23709;48.078;11.684;2022-12-07T07:36:19;2.60;99.90
37874;DHT22;23709;48.078;11.684;2022-12-07T07:38:51;2.70;99.90
37874;DHT22;23709;48.078;11.684;2022-12-07T07:41:23;2.70;99.90
37874;DHT22;23709;48.078;11.684;2022-12-07T07:43:55;2.70;99.90
37874;DHT22;23709;48.078;11.684;2022-12-07T07:46:27;2.70;99.90
37874;DHT22;23709;48.078;11.684;2022-12-07T07:48:59;2.60;99.90
37874;DHT22;23709;48.078;11.684;2022-12-07T07:51:32;2.60;99.90
37874;DHT22;23709;48.078;11.684;2022-12-07T07:54:04;2.60;99.90
37874;DHT22;23709;48.078;11.684;2022-12-07T07:56:36;2.60;99.90
37874;DHT22;23709;48.078;11.684;2022-12-07T07:59:08;2.50;99.90
37874;DHT22;23709;48.078;11.684;2022-12-07T08:01:40;2.60;99.90
37874;DHT22;23709;48.078;11.684;2022-12-07T08:04:12;2.60;99.90
37874;DHT22;23709;48.078;11.684;2022-12-07T08:06:44;2.60;99.90
37874;DHT22;23709;48.078;11.684;2022-12-07T08:09:16;2.60;99.90
37874;DHT22;23709;48.078;11.684;2022-12-07T08:11:49;2.60;99.90
37874;DHT22;23709;48.078;11.684;2022-12-07T08:14:21;2.50;99.90
37874;DHT22;23709;48.078;11.684;2022-12-07T08:16:53;2.50;99.90
37874;DHT22;23709;48.078;11.684;2022-12-07T08:19:25;2.60;99.90
37874;DHT22;23709;48.078;11.684;2022-12-07T08:21:58;2.60;99.90
37874;DHT22;23709;48.078;11.684;2022-12-07T08:24:32;2.70;99.90
37874;DHT22;23709;48.078;11.684;2022-12-07T08:27:04;2.70;99.90
37874;DHT22;23709;48.078;11.684;2022-12-07T08:29:36;2.70;99.90
37874;DHT22;23709;48.078;11.684;2022-12-07T08:32:08;2.70;99.90
37874;DHT22;23709;48.078;11.684;2022-12-07T08:34:40;2.70;99.90
37874;DHT22;23709;48.078;11.684;2022-12-07T08:37:13;2.60;99.90
37874;DHT22;23709;48.078;11.684;2022-12-07T08:39:45;2.70;99.90
37874;DHT22;23709;48.078;11.684;2022-12-07T08:42:17;2.60;99.90
37874;DHT22;23709;48.078;11.684;2022-12-07T08:44:49;2.60;99.90
37874;DHT22;23709;48.078;11.684;2022-12-07T08:47:22;2.70;99.90
37874;DHT22;23709;48.078;11.684;2022-12-07T08:49:55;2.70;99.90
37874;DHT22;23709;48.078;11.684;2022-12-07T08:52:27;2.70;99.90
37874;DHT22;23709;48.078;11.684;2022-12-07T08:54:59;2.80;99.90
37874;DHT22;23709;48.078;11.684;2022-12-07T08:57:34;2.80;99.90
37874;DHT22;23709;48.078;11.684;2022-12-07T09:00:07;2.80;99.90
37874;DHT22;23709;48.078;11.684;2022-12-07T09:02:40;2.90;99.90
37874;DHT22;23709;48.078;11.684;2022-12-07T09:05:13;2.90;99.90
37874;DHT22;23709;48.078;11.684;2022-12-07T09:07:51;2.90;99.90
37874;DHT22;23709;48.078;11.684;2022-12-07T09:10:24;2.90;99.90
37874;DHT22;23709;48.078;11.684;2022-12-07T16:57:22;0.90;99.90
37874;DHT22;23709;48.078;11.684;2022-12-07T16:59:55;0.80;99.90
37874;DHT22;23709;48.078;11.684;2022-12-07T17:02:27;0.80;99.90
37874;DHT22;23709;48.078;11.684;2022-12-07T17:04:59;0.30;99.90
37874;DHT22;23709;48.078;11.684;2022-12-07T17:07:32;0.80;99.90
37874;DHT22;23709;48.078;11.684;2022-12-07T17:10:04;0.90;99.90
37874;DHT22;23709;48.078;11.684;2022-12-07T17:12:37;1.00;99.90
37874;DHT22;23709;48.078;11.684;2022-12-07T17:15:10;1.00;99.90
37874;DHT22;23709;48.078;11.684;2022-12-07T17:17:56;1.10;99.90
37874;DHT22;23709;48.078;11.684;2022-12-07T17:20:28;1.10;99.90
37874;DHT22;23709;48.078;11.684;2022-12-07T17:23:00;1.20;99.90
37874;DHT22;23709;48.078;11.684;2022-12-07T17:25:32;1.30;99.90
37874;DHT22;23709;48.078;11.684;2022-12-07T17:28:04;1.30;99.90
37874;DHT22;23709;48.078;11.684;2022-12-07T17:30:38;1.40;99.90
37874;DHT22;23709;48.078;11.684;2022-12-07T17:33:10;1.40;99.90
37874;DHT22;23709;48.078;11.684;2022-12-07T17:35:42;1.50;99.90
37874;DHT22;23709;48.078;11.684;2022-12-07T17:38:14;1.60;99.90
37874;DHT22;23709;48.078;11.684;2022-12-07T17:40:46;1.60;99.90
37874;DHT22;23709;48.078;11.684;2022-12-07T17:43:18;1.70;99.90
37874;DHT22;23709;48.078;11.684;2022-12-07T17:45:50;1.70;99.90
37874;DHT22;23709;48.078;11.684;2022-12-07T17:48:22;1.70;99.90
37874;DHT22;23709;48.078;11.684;2022-12-07T17:50:59;1.80;99.90
37874;DHT22;23709;48.078;11.684;2022-12-07T17:53:50;1.80;99.90
37874;DHT22;23709;48.078;11.684;2022-12-07T17:56:22;1.80;99.90
37874;DHT22;23709;48.078;11.684;2022-12-07T17:59:02;1.80;99.90
37874;DHT22;23709;48.078;11.684;2022-12-07T18:01:34;1.80;99.90
37874;DHT22;23709;48.078;11.684;2022-12-07T18:04:07;1.90;99.90
37874;DHT22;23709;48.078;11.684;2022-12-07T18:06:40;1.90;99.90
37874;DHT22;23709;48.078;11.684;2022-12-07T18:09:12;1.90;99.90
37874;DHT22;23709;48.078;11.684;2022-12-07T18:11:44;1.90;99.90
37874;DHT22;23709;48.078;11.684;2022-12-07T18:14:17;1.90;99.90
37874;DHT22;23709;48.078;11.684;2022-12-07T18:16:49;1.90;99.90
37874;DHT22;23709;48.078;11.684;2022-12-07T18:19:21;1.90;99.90
37874;DHT22;23709;48.078;11.684;2022-12-07T18:21:53;2.00;99.90
37874;DHT22;23709;48.078;11.684;2022-12-07T18:24:26;2.00;99.90
37874;DHT22;23709;48.078;11.684;2022-12-07T18:27:05;2.00;99.90
37874;DHT22;23709;48.078;11.684;2022-12-07T18:29:38;2.00;99.90
37874;DHT22;23709;48.078;11.684;2022-12-07T18:32:10;2.00;99.90
37874;DHT22;23709;48.078;11.684;2022-12-07T18:34:42;2.00;99.90
37874;DHT22;23709;48.078;11.684;2022-12-07T18:37:14;2.00;99.90
37874;DHT22;23709;48.078;11.684;2022-12-07T18:39:46;2.00;99.90
37874;DHT22;23709;48.078;11.684;2022-12-07T18:42:18;2.00;99.90
37874;DHT22;23709;48.078;11.684;2022-12-07T18:44:50;2.00;99.90
37874;DHT22;23709;48.078;11.684;2022-12-07T18:47:22;1.90;99.90
37874;DHT22;23709;48.078;11.684;2022-12-07T18:49:54;1.90;99.90
37874;DHT22;23709;48.078;11.684;2022-12-07T18:52:26;2.00;99.90
37874;DHT22;23709;48.078;11.684;2022-12-07T18:55:01;2.00;99.90
37874;DHT22;23709;48.078;11.684;2022-12-07T18:57:34;2.00;99.90
37874;DHT22;23709;48.078;11.684;2022-12-07T19:00:07;2.10;99.90
37874;DHT22;23709;48.078;11.684;2022-12-07T19:02:39;2.10;99.90
37874;DHT22;23709;48.078;11.684;2022-12-07T19:05:12;2.10;99.90
37874;DHT22;23709;48.078;11.684;2022-12-07T19:07:44;2.10;99.90
37874;DHT22;23709;48.078;11.684;2022-12-07T19:10:18;2.10;99.90
37874;DHT22;23709;48.078;11.684;2022-12-07T19:12:51;2.10;99.90
37874;DHT22;23709;48.078;11.684;2022-12-07T19:15:23;2.10;99.90
37874;DHT22;23709;48.078;11.684;2022-12-07T19:17:55;2.10;99.90
37874;DHT22;23709;48.078;11.684;2022-12-07T19:20:27;2.20;99.90
37874;DHT22;23709;48.078;11.684;2022-12-07T19:23:00;2.20;99.90
37874;DHT22;23709;48.078;11.684;2022-12-07T19:25:32;2.10;99.90
37874;DHT22;23709;48.078;11.684;2022-12-07T19:28:07;2.20;99.90
37874;DHT22;23709;48.078;11.684;2022-12-07T19:30:39;2.20;99.90
37874;DHT22;23709;48.078;11.684;2022-12-07T19:33:12;2.20;99.90
37874;DHT22;23709;48.078;11.684;2022-12-07T19:35:44;2.20;99.90
37874;DHT22;23709;48.078;11.684;2022-12-07T19:38:16;2.20;99.90
37874;DHT22;23709;48.078;11.684;2022-12-07T19:40:48;2.10;99.90
37874;DHT22;23709;48.078;11.684;2022-12-07T19:43:20;2.10;99.90
37874;DHT22;23709;48.078;11.684;2022-12-07T19:45:52;2.20;99.90
37874;DHT22;23709;48.078;11.684;2022-12-07T19:48:25;2.20;99.90
37874;DHT22;23709;48.078;11.684;2022-12-07T19:51:03;2.20;99.90
37874;DHT22;23709;48.078;11.684;2022-12-07T19:53:36;2.30;99.90
37874;DHT22;23709;48.078;11.684;2022-12-07T19:56:13;2.20;99.90
37874;DHT22;23709;48.078;11.684;2022-12-07T19:58:46;2.20;99.90
37874;DHT22;23709;48.078;11.684;2022-12-07T20:01:20;2.30;99.90
37874;DHT22;23709;48.078;11.684;2022-12-07T20:03:52;2.30;99.90
37874;DHT22;23709;48.078;11.684;2022-12-07T20:06:25;2.40;99.90
